SEASEATTLE-TACOMA INTL
METARs for airports near SEA, sorted by distance:
N 0 nm 432' KSEA 040553Z 00000KT 10SM BKN047 BKN110 15/10 A3015
NE 4 nm 32' KRNT 040553Z 34006KT 10SM BKN055 16/09 A3014
N 4 nm 21' KBFI 040553Z 30003KT 10SM SCT050 14/11 A3014
SW 15 nm 294' KTIW 040553Z 00000KT 10SM SCT090 14/09 A3015
W 18 nm 444' KPWT 040556Z 06005KT 10SM CLR 12/11 A3015
S 19 nm 322' KTCM 040558Z 28007KT 10SM FEW032 OVC044 15/09 A3015
S 20 nm 537' KPLU 040615Z 00000KT 10SM OVC039 15/12 A3015
SW 24 nm 301' KGRF 040558Z 26007KT 10SM BKN045 15/13 A3014
N 27 nm 607' KPAE 040607Z 35005KT 7SM BKN002 13/12 A3015
W 36 nm 272' KSHN 040553Z 30006KT 10SM CLR 12/10 A3012
SW 37 nm 207' KOLM 040554Z 00000KT 10SM OVC095 13/09 A3014
N 43 nm 141' KAWO 040556Z 34004KT 10SM OVC070 13/12 A3015
SW 53 nm 177' KCLS 040615Z 26003KT 10SM FEW100 13/12 A3015
N 55 nm 47' KNUW 040556Z 31006KT 10SM FEW012 OVC033 12/11 A3020
NW 60 nm 13' KNOW 040550Z 30003KT 10SM OVC085 11/10 A3017
N 61 nm 145' KBVS 040615Z 30004KT 10SM BKN041 BKN048 OVC065 13/13 A3015
NW 62 nm 291' KCLM 040553Z 00000KT 10SM FEW050 FEW070 OVC085 11/10 A3017
NW 70 nm 112' KFHR 040608Z 36003KT 3SM -RA BR BKN028 OVC036 12/11 A3017
SW 72 nm 17' KHQM 040553Z 00000KT 10SM CLR 12/10 A3016
E 76 nm 1763' KELN 040553Z 29016KT 10SM CLR 16/07 A3005
N 79 nm 34' KORS 040615Z 00000KT 4SM -RA BR BKN004 BKN009 OVC042 12/12 A3016
N 81 nm 171' KBLI 040553Z 35003KT 4SM BR BKN003 OVC060 13/12 A3016
S 83 nm 20' KKLS 040556Z 33003KT 10SM CLR 15/11 A3015
NW 84 nm 64' CYYJ 040600Z 10004KT 12SM -RA FEW005 FEW015 SCT040 BKN065 OVC100 12/12 A3015
E 85 nm 1248' KEAT 040555Z 30011KT 10SM BKN100 18/04 A3002
SE 89 nm 1098' KYKM 040553Z 26004KT 10SM CLR 18/07 A3002
W 95 nm 193' KUIL 040553Z 00000KT 9SM BKN039 OVC110 12/12 A3016
TAFs for airports near SEA, sorted by distance:
N 0 nm 432' KSEA KSEA 040522Z 0406/0512 VRB04KT P6SM BKN050 BKN100
  FM041000 00000KT P6SM BKN035
  FM041800 VRB04KT P6SM BKN050
  FM042200 35007KT P6SM BKN050
N 4 nm 21' KBFI KBFI 040522Z 0406/0506 VRB04KT P6SM BKN050 BKN100
  FM041000 00000KT P6SM BKN040
  FM041800 VRB04KT P6SM BKN050
  FM042200 33005KT P6SM BKN050
W 18 nm 444' KPWT TAF KPWT 040522Z 0406/0506 05005KT P6SM SCT030 SCT050 BKN100
  FM041000 00000KT P6SM BKN030 BKN050
  FM041800 VRB04KT P6SM SCT030 BKN050
  FM042200 35007KT P6SM BKN050
S 19 nm 322' KTCM TAF KTCM 040500Z 0405/0511 25006KT 9999 BKN020 OVC030 QNH3012INS
  BECMG 0417/0418 27009KT 9999 SCT040 BKN060 QNH3014INS
  BECMG 0505/0506 28006KT 9999 SCT040 QNH3019INS TX22/0421Z TN11/0412Z
SW 24 nm 301' KGRF TAF COR KGRF 040422Z 0404/0503 25009KT 9999 BKN100 QNH3010INS
  BECMG 0407/0408 VRB06KT 9999 BKN090 611104 QNH3013INS
  BECMG 0410/0411 VRB06KT 9999 FEW090 SCT110 QNH3013INS TX20/0421Z TN12/0411Z LAST NO
  AMDS AFT 0404 NEXT 0513
N 27 nm 607' KPAE TAF
  AMD KPAE 040611Z 0406/0506 33005KT P6SM SCT002 BKN050 BKN100
  TEMPO 0406/0409 5SM BR BKN002 OVC050
  FM041000 04004KT P6SM BKN035
  FM041800 VRB04KT P6SM BKN050
  FM042200 35007KT P6SM BKN050
SW 37 nm 207' KOLM KOLM 040522Z 0406/0506 00000KT P6SM SCT050 BKN100
  FM041000 00000KT P6SM BKN035
  FM041800 VRB04KT P6SM BKN050
  FM042200 21007KT P6SM SCT050
N 55 nm 47' KNUW TAF TAF KNUW 0323/0423 VRB06KT 9999 VCSH SCT025 BKN040 OVC100 QNH3007INS
  TEMPO 0323/0405 8000 -SHRA BKN025 OVC040
  FM041200 VRB06KT 9999 BKN025 OVC040 QNH3014INS
  BECMG 0418/0419 VRB06KT 9999 SCT025 BKN040 OVC100 QNH3015INS T09/0412Z T15/0422Z FS30134
NW 62 nm 291' KCLM KCLM 040522Z 0406/0506 00000KT P6SM BKN080
  FM041000 VRB04KT P6SM BKN050
  FM042200 30007KT P6SM SCT050
SW 72 nm 17' KHQM KHQM 040522Z 0406/0506 VRB04KT P6SM SCT050 SCT100
  FM041000 00000KT P6SM BKN040
  FM041800 VRB04KT P6SM BKN040
  FM042200 33007KT P6SM SCT050
N 81 nm 171' KBLI TAF
  AMD KBLI 040604Z 0406/0506 02004KT P6SM SCT003 OVC050
  TEMPO 0406/0409 4SM -SHRA BR BKN003 OVC050
  FM041000 00000KT P6SM SCT010 BKN030 OVC050
  FM041800 VRB04KT P6SM SCT030 BKN050
  FM042200 21005KT P6SM BKN050
E 85 nm 1248' KEAT TAF KEAT 040520Z 0406/0506 31011KT P6SM BKN200
  FM041800 26006KT P6SM SKC
  FM050100 29012KT P6SM BKN250
  FM050200 29015G21KT P6SM SKC
  FM050400 29012KT P6SM SKC
SE 89 nm 1098' KYKM TAF KYKM 040520Z 0406/0506 34005KT P6SM SKC

Shortcut to this page: http://wxbay.com.

Data may contain errors.